createdAt,value
2024-05-09T15:36:03.246Z,30.03
2024-05-09T15:38:14.784Z,29.89
2024-05-09T15:40:31.752Z,29.75
2024-05-09T15:42:49.120Z,29.61
2024-05-09T15:45:01.215Z,29.46
2024-05-09T15:47:11.325Z,29.31
2024-05-09T15:49:21.656Z,29.14
2024-05-09T15:51:31.929Z,28.94
2024-05-09T15:53:42.133Z,28.76
2024-05-09T15:55:52.165Z,28.58
2024-05-09T15:58:03.221Z,28.43
2024-05-09T16:00:24.797Z,28.26
2024-05-09T16:02:44.049Z,28.07
2024-05-09T16:04:54.791Z,27.90
2024-05-09T16:07:05.040Z,27.74
2024-05-09T16:09:16.320Z,27.59
2024-05-09T16:11:26.814Z,27.44
2024-05-09T16:13:37.649Z,27.27
2024-05-09T16:15:49.342Z,27.12
2024-05-09T16:18:00.340Z,26.96
2024-05-09T16:20:18.088Z,26.79
2024-05-09T16:22:33.081Z,26.63
2024-05-09T16:24:44.360Z,26.51
2024-05-09T16:26:55.611Z,26.37
2024-05-09T16:29:06.695Z,26.26
2024-05-09T16:31:17.124Z,26.16
2024-05-09T16:33:27.992Z,26.08
2024-05-09T16:35:40.103Z,26.14
2024-05-09T16:37:51.456Z,26.22
2024-05-09T16:40:04.514Z,26.11
2024-05-09T16:42:16.683Z,25.91
2024-05-09T16:44:29.239Z,25.70
2024-05-09T16:46:39.847Z,25.49
2024-05-09T16:48:50.930Z,25.28
2024-05-09T16:51:01.784Z,25.06
2024-05-09T16:53:14.303Z,24.86
2024-05-09T16:55:25.762Z,24.69
2024-05-09T16:57:36.787Z,24.55
2024-05-09T16:59:47.751Z,24.44
2024-05-09T17:01:58.810Z,24.31
2024-05-09T17:04:10.091Z,24.16
2024-05-09T17:06:20.943Z,24.04
2024-05-09T17:08:32.689Z,23.90
2024-05-09T17:10:43.693Z,23.77
2024-05-09T17:12:54.634Z,23.66
2024-05-09T17:15:06.061Z,23.56
2024-05-09T17:17:17.057Z,23.47
2024-05-09T17:19:27.928Z,23.40
2024-05-09T17:21:38.880Z,23.32
2024-05-09T17:23:51.670Z,23.22
2024-05-09T17:26:02.918Z,23.12
2024-05-09T17:28:14.345Z,23.03
2024-05-09T17:30:32.264Z,22.99
2024-05-09T17:32:47.353Z,22.87
2024-05-09T17:34:58.601Z,22.73
2024-05-09T17:37:10.024Z,22.62
2024-05-09T17:39:21.150Z,22.54
2024-05-09T17:41:32.338Z,22.47
2024-05-09T17:43:43.199Z,22.43
2024-05-09T17:45:54.286Z,22.34
2024-05-09T17:48:05.916Z,22.22
2024-05-09T17:50:23.870Z,22.15
2024-05-09T17:52:38.579Z,22.12
2024-05-09T17:54:49.771Z,22.07
2024-05-09T17:57:00.844Z,21.99
2024-05-09T17:59:11.749Z,21.97
2024-05-09T18:01:24.050Z,21.93
2024-05-09T18:03:34.903Z,21.83
2024-05-09T18:05:46.159Z,21.70
2024-05-09T18:07:57.599Z,21.57
2024-05-09T18:10:16.076Z,21.43
2024-05-09T18:12:34.555Z,21.40
2024-05-09T18:14:45.721Z,21.34
2024-05-09T18:16:56.413Z,21.40
2024-05-09T18:19:07.492Z,22.06
2024-05-09T18:21:18.679Z,22.68
2024-05-09T18:23:29.858Z,23.04
2024-05-09T18:25:41.830Z,23.14
2024-05-09T18:27:52.702Z,23.20
2024-05-09T18:30:05.498Z,23.22
2024-05-09T18:32:18.060Z,23.09
2024-05-09T18:34:28.879Z,23.01
2024-05-09T18:36:39.881Z,23.04
2024-05-09T18:38:51.020Z,23.09
2024-05-09T18:41:02.218Z,23.14
2024-05-09T18:43:14.020Z,23.52
2024-05-09T18:45:24.880Z,23.83
2024-05-09T18:47:36.043Z,24.04
2024-05-09T18:49:46.879Z,24.23
2024-05-09T18:51:58.124Z,24.26
2024-05-09T18:54:09.274Z,24.26
2024-05-09T18:56:20.224Z,24.18
2024-05-09T18:58:30.648Z,24.10
2024-05-09T19:00:45.304Z,23.96
2024-05-09T19:02:58.276Z,23.72
2024-05-09T19:05:09.650Z,23.35
2024-05-09T19:07:20.645Z,23.06
2024-05-09T19:09:31.359Z,22.86
2024-05-09T19:11:42.517Z,22.74
2024-05-09T19:13:53.490Z,22.62
2024-05-09T19:16:04.234Z,22.43
2024-05-09T19:18:16.045Z,22.13
2024-05-09T19:20:33.078Z,21.76
2024-05-09T19:22:45.399Z,21.43
2024-05-09T19:24:56.285Z,21.26
2024-05-09T19:27:07.456Z,21.26
2024-05-09T19:29:18.736Z,21.29
2024-05-09T19:31:29.687Z,21.25
2024-05-09T19:33:41.278Z,21.17
2024-05-09T19:35:51.987Z,21.08
2024-05-09T19:38:03.141Z,21.04
2024-05-09T19:40:24.474Z,20.86
2024-05-09T19:42:40.601Z,20.59
2024-05-09T19:44:51.556Z,20.29
2024-05-09T19:47:02.547Z,19.96
2024-05-09T19:49:13.864Z,19.63
2024-05-09T19:51:24.697Z,19.38
2024-05-09T19:53:35.398Z,19.18
2024-05-09T19:55:46.555Z,19.02
2024-05-09T19:57:58.237Z,18.91
2024-05-09T20:00:17.732Z,18.82
2024-05-09T20:02:33.769Z,18.72
2024-05-09T20:04:46.245Z,18.69
2024-05-09T20:06:57.634Z,18.70
2024-05-09T20:09:09.040Z,18.65
2024-05-09T20:11:19.798Z,18.58
2024-05-09T20:13:30.771Z,18.45
2024-05-09T20:15:42.434Z,18.35
2024-05-09T20:17:54.068Z,18.38
2024-05-09T20:20:09.167Z,18.62
2024-05-09T20:22:25.012Z,18.82
2024-05-09T20:24:35.904Z,18.72
2024-05-09T20:26:47.271Z,18.52
2024-05-09T20:28:58.289Z,18.34
2024-05-09T20:31:09.975Z,18.13
2024-05-09T20:33:21.098Z,18.35
2024-05-09T20:35:33.107Z,19.02
2024-05-09T20:37:41.803Z,20.00
2024-05-09T20:39:52.616Z,20.72
2024-05-09T20:42:04.116Z,21.25
2024-05-09T20:44:15.157Z,21.65
2024-05-09T20:46:26.514Z,21.93
2024-05-09T20:48:37.270Z,22.16
2024-05-09T20:50:48.617Z,22.20
2024-05-09T20:53:00.120Z,21.95
2024-05-09T20:55:11.745Z,21.55
2024-05-09T20:57:22.300Z,21.13
2024-05-09T20:59:33.119Z,20.82
2024-05-09T21:01:48.663Z,20.99
2024-05-09T21:04:00.167Z,21.34
2024-05-09T21:06:11.758Z,21.63
2024-05-09T21:08:23.805Z,21.82
2024-05-09T21:10:34.085Z,21.87
2024-05-09T21:12:45.389Z,21.79
2024-05-09T21:14:56.186Z,22.13
2024-05-09T21:17:07.398Z,22.56
2024-05-09T21:19:18.271Z,22.88
2024-05-09T21:21:29.646Z,22.97
2024-05-09T21:23:40.610Z,23.00
2024-05-09T21:25:51.666Z,23.17
2024-05-09T21:28:03.223Z,23.22
2024-05-09T21:30:22.264Z,23.10
2024-05-09T21:32:39.534Z,22.98
2024-05-09T21:34:50.455Z,22.98
2024-05-09T21:37:04.432Z,23.05
2024-05-09T21:39:15.794Z,22.70
2024-05-09T21:41:26.961Z,22.38
2024-05-09T21:43:38.173Z,22.19
2024-05-09T21:45:49.606Z,22.15
2024-05-09T21:48:00.953Z,22.45
2024-05-09T21:50:22.170Z,22.74
2024-05-09T21:52:35.801Z,22.65
2024-05-09T21:54:47.358Z,22.27
2024-05-09T21:56:58.529Z,21.79
2024-05-09T21:59:09.207Z,21.17
2024-05-09T22:01:20.624Z,20.71
2024-05-09T22:03:31.515Z,20.41
2024-05-09T22:05:45.280Z,20.17
2024-05-09T22:07:57.761Z,20.00
2024-05-09T22:10:19.529Z,19.96
2024-05-09T22:12:34.174Z,19.92
2024-05-09T22:14:45.213Z,20.25
2024-05-09T22:16:55.739Z,20.38
2024-05-09T22:19:07.418Z,20.51
2024-05-09T22:21:18.434Z,20.93
2024-05-09T22:23:29.425Z,21.40
2024-05-09T22:25:40.622Z,21.56
2024-05-09T22:27:51.402Z,21.32
2024-05-09T22:30:02.923Z,21.18
2024-05-09T22:32:15.013Z,21.26
2024-05-09T22:34:28.531Z,21.20
2024-05-09T22:36:39.773Z,21.11
2024-05-09T22:38:50.432Z,21.12
2024-05-09T22:41:01.664Z,21.35
2024-05-09T22:43:12.572Z,21.37
2024-05-09T22:45:26.720Z,20.90
2024-05-09T22:47:37.692Z,20.18
2024-05-09T22:49:49.273Z,19.55
2024-05-09T22:52:00.688Z,19.49
2024-05-09T22:54:11.518Z,19.95
2024-05-09T22:56:31.432Z,20.38
2024-05-09T22:58:42.658Z,20.71
2024-05-09T23:00:54.101Z,21.13
2024-05-09T23:03:05.472Z,21.64
2024-05-09T23:05:17.052Z,22.15
2024-05-09T23:07:28.269Z,22.13
2024-05-09T23:09:39.573Z,21.85
2024-05-09T23:11:50.407Z,21.62
2024-05-09T23:14:01.898Z,21.22
2024-05-09T23:16:13.669Z,20.71
2024-05-09T23:18:24.461Z,20.43
2024-05-09T23:20:39.933Z,20.53
2024-05-09T23:22:51.518Z,20.55
2024-05-09T23:25:02.910Z,20.44
2024-05-09T23:27:14.321Z,20.51
2024-05-09T23:29:24.771Z,20.61
2024-05-09T23:31:36.302Z,20.80
2024-05-09T23:33:51.899Z,20.71
2024-05-09T23:36:04.493Z,20.44
2024-05-09T23:38:16.083Z,20.05
2024-05-09T23:40:37.329Z,19.55
2024-05-09T23:42:51.430Z,19.26
2024-05-09T23:45:02.807Z,19.59
2024-05-09T23:47:14.478Z,19.85
2024-05-09T23:49:25.605Z,20.08
2024-05-09T23:51:37.199Z,20.19
2024-05-09T23:53:51.628Z,20.27
2024-05-09T23:56:03.203Z,20.23
2024-05-09T23:58:14.116Z,20.14
